Time;durP1;ratioP1;P1;durP2;ratioP2;P2;SDS_P1;SDS_P2;PMS_P1;PMS_P2;Temp;Humidity;BMP_temperature;BMP_pressure;BME280_temperature;BME280_humidity;BME280_pressure;Samples;Min_cycle;Max_cycle;Signal;HPM_P1;HPM_P2
2022/11/02 00:02:03;;;;;;;10.48;1.50;;;14.70;90.00;;;;;;4972150;28;20440;-71
2022/11/02 00:04:29;;;;;;;10.85;1.52;;;14.60;90.10;;;;;;4987025;28;20138;-70
2022/11/02 00:06:55;;;;;;;5.90;1.50;;;14.60;90.00;;;;;;4970979;28;20046;-72
2022/11/02 00:09:20;;;;;;;8.30;1.38;;;14.60;90.10;;;;;;4970582;28;20046;-71
2022/11/02 00:11:46;;;;;;;8.85;1.35;;;14.60;90.20;;;;;;4972277;28;20031;-69
2022/11/02 00:14:11;;;;;;;8.00;1.42;;;14.60;90.30;;;;;;4970683;28;20109;-71
2022/11/02 00:16:39;;;;;;;12.43;1.30;;;14.60;90.30;;;;;;4971855;28;20093;-71
2022/11/02 00:19:06;;;;;;;7.82;1.92;;;14.50;90.30;;;;;;4971987;28;20027;-71
2022/11/02 00:21:33;;;;;;;12.90;1.80;;;14.50;90.40;;;;;;4970629;28;20086;-71
2022/11/02 00:23:59;;;;;;;19.42;1.92;;;14.50;90.50;;;;;;4971674;28;20396;-71
2022/11/02 00:26:26;;;;;;;13.25;2.97;;;14.50;90.50;;;;;;4972139;28;20516;-70
2022/11/02 00:28:53;;;;;;;15.33;1.87;;;14.50;90.60;;;;;;4971674;28;20058;-73
2022/11/02 00:31:18;;;;;;;6.43;1.95;;;14.50;90.60;;;;;;4971742;28;20376;-70
2022/11/02 00:33:44;;;;;;;15.05;2.13;;;14.50;90.70;;;;;;4970500;28;20035;-71
2022/11/02 00:36:10;;;;;;;8.45;1.92;;;14.40;90.70;;;;;;4971351;28;20030;-71
2022/11/02 00:38:35;;;;;;;6.65;1.30;;;14.40;90.70;;;;;;4970817;28;20054;-71
2022/11/02 00:41:01;;;;;;;12.50;1.58;;;14.50;90.70;;;;;;4971380;28;20453;-71
2022/11/02 00:43:27;;;;;;;11.55;1.88;;;14.40;90.70;;;;;;4971474;28;20035;-70
2022/11/02 00:45:52;;;;;;;9.25;1.50;;;14.40;90.80;;;;;;4986585;28;20111;-71
2022/11/02 00:48:18;;;;;;;13.52;1.70;;;14.40;90.90;;;;;;4971275;28;20039;-72
2022/11/02 00:50:44;;;;;;;21.55;2.28;;;14.40;90.90;;;;;;4971787;28;20026;-71
2022/11/02 00:53:09;;;;;;;9.27;1.42;;;14.40;90.90;;;;;;4970302;28;20390;-71
2022/11/02 00:55:35;;;;;;;9.80;1.98;;;14.40;90.90;;;;;;4971550;28;20088;-70
2022/11/02 00:58:01;;;;;;;9.93;1.65;;;14.40;91.00;;;;;;4971172;28;20031;-71
2022/11/02 01:00:26;;;;;;;12.85;2.00;;;14.40;91.00;;;;;;4971340;28;20360;-71
2022/11/02 01:02:52;;;;;;;12.77;1.38;;;14.30;91.10;;;;;;4971647;28;20489;-70
2022/11/02 01:05:18;;;;;;;10.77;1.63;;;14.30;91.20;;;;;;4971614;28;20043;-71
2022/11/02 01:07:44;;;;;;;7.32;1.33;;;14.30;91.20;;;;;;4986863;28;20050;-72
2022/11/02 01:10:10;;;;;;;23.00;3.72;;;14.30;91.30;;;;;;4974861;28;20047;-71
2022/11/02 01:12:37;;;;;;;10.38;1.60;;;14.30;91.30;;;;;;4974997;28;20027;-72
2022/11/02 01:15:04;;;;;;;7.77;1.83;;;14.30;91.30;;;;;;4974932;28;20417;-73
2022/11/02 01:17:30;;;;;;;10.43;1.55;;;14.20;91.40;;;;;;4990501;28;20046;-71
2022/11/02 01:19:56;;;;;;;12.23;2.25;;;14.20;91.40;;;;;;4975381;28;20075;-72
2022/11/02 01:22:22;;;;;;;10.55;2.03;;;14.20;91.40;;;;;;4973688;28;20176;-73
2022/11/02 01:24:47;;;;;;;9.15;1.52;;;14.20;91.50;;;;;;4974930;28;20043;-72
2022/11/02 01:27:13;;;;;;;8.85;1.52;;;14.10;91.60;;;;;;4974701;28;20102;-72
2022/11/02 01:29:38;;;;;;;8.70;1.33;;;14.20;91.60;;;;;;4975258;28;20070;-71
2022/11/02 01:32:04;;;;;;;13.02;1.83;;;14.20;91.70;;;;;;4989724;28;20043;-72
2022/11/02 01:34:30;;;;;;;9.52;1.50;;;14.20;91.60;;;;;;4974581;28;20035;-72
2022/11/02 01:36:55;;;;;;;15.38;1.80;;;14.20;91.60;;;;;;4974817;28;20110;-72
2022/11/02 01:39:21;;;;;;;14.18;1.63;;;14.20;91.70;;;;;;4974533;28;20085;-73
2022/11/02 01:41:52;;;;;;;10.55;1.70;;;14.20;91.70;;;;;;4975193;28;20449;-72
2022/11/02 01:44:29;;;;;;;9.25;1.50;;;14.30;91.60;;;;;;4974599;28;20038;-73
2022/11/02 01:47:04;;;;;;;14.00;2.03;;;14.20;91.50;;;;;;4974487;28;20412;-73
2022/11/02 01:49:33;;;;;;;7.82;1.63;;;14.20;91.70;;;;;;4973324;28;20077;-72
2022/11/02 01:52:06;;;;;;;11.30;2.38;;;14.10;92.10;;;;;;4989454;28;20045;-72
2022/11/02 01:54:38;;;;;;;8.88;1.50;;;14.20;91.90;;;;;;4974162;28;20066;-72
2022/11/02 01:57:08;;;;;;;9.02;1.10;;;14.20;91.80;;;;;;4974391;28;20548;-71
2022/11/02 01:59:53;;;;;;;9.05;1.33;;;14.10;92.00;;;;;;4974958;28;20037;-72
2022/11/02 02:02:24;;;;;;;9.23;2.25;;;14.20;92.00;;;;;;4974139;28;20045;-72
2022/11/02 02:05:03;;;;;;;9.00;1.20;;;14.20;92.00;;;;;;4974168;28;20053;-72
2022/11/02 02:07:30;;;;;;;5.10;1.10;;;14.20;92.00;;;;;;4973997;28;20035;-71
2022/11/02 02:09:56;;;;;;;17.13;1.73;;;14.10;92.10;;;;;;4973662;28;20054;-72
2022/11/02 02:12:23;;;;;;;8.73;1.45;;;14.10;91.90;;;;;;4972795;28;20467;-72
2022/11/02 02:14:50;;;;;;;14.20;1.90;;;14.20;92.00;;;;;;4974287;28;20055;-72
2022/11/02 02:17:24;;;;;;;8.75;1.67;;;14.20;92.00;;;;;;4974013;28;20034;-73
2022/11/02 02:20:15;;;;;;;6.53;1.30;;;14.20;92.00;;;;;;4973113;28;20035;-72
2022/11/02 02:23:00;;;;;;;6.03;1.08;;;14.20;92.00;;;;;;4973905;28;20043;-72
2022/11/02 02:25:56;;;;;;;16.10;2.83;;;14.20;92.00;;;;;;4973740;28;20037;-71
2022/11/02 02:28:42;;;;;;;9.48;1.60;;;14.20;92.00;;;;;;4972723;28;20039;-71
2022/11/02 02:31:34;;;;;;;9.85;2.20;;;14.20;91.90;;;;;;4973874;28;20070;-72
2022/11/02 02:34:06;;;;;;;11.95;1.58;;;14.20;92.30;;;;;;4973612;28;20121;-71
2022/11/02 02:36:48;;;;;;;11.68;1.45;;;14.10;92.20;;;;;;4987105;28;20026;-72
2022/11/02 02:39:22;;;;;;;19.17;2.47;;;14.20;92.30;;;;;;4992153;28;20068;-72
2022/11/02 02:42:25;;;;;;;8.18;2.00;;;14.10;92.40;;;;;;4992177;28;20041;-72
2022/11/02 02:45:18;;;;;;;11.98;1.50;;;14.20;92.30;;;;;;4983952;28;20068;-72
2022/11/02 02:48:00;;;;;;;8.32;1.63;;;14.20;92.40;;;;;;4993463;28;20030;-73
2022/11/02 02:50:32;;;;;;;25.35;2.75;;;14.20;92.40;;;;;;4991652;28;20042;-71
2022/11/02 02:53:00;;;;;;;19.42;2.38;;;14.20;92.40;;;;;;4992723;28;20038;-72
2022/11/02 02:55:31;;;;;;;11.85;1.75;;;14.20;92.60;;;;;;4991667;28;20121;-71
2022/11/02 02:58:00;;;;;;;17.65;1.80;;;14.20;92.50;;;;;;4991476;28;20031;-71
2022/11/02 03:00:27;;;;;;;7.40;1.52;;;14.20;92.60;;;;;;4991397;28;20129;-71
2022/11/02 03:03:00;;;;;;;9.45;2.25;;;14.20;92.90;;;;;;4992883;28;20029;-72
2022/11/02 03:05:34;;;;;;;8.38;1.80;;;14.20;92.50;;;;;;4992466;28;20125;-71
2022/11/02 03:08:14;;;;;;;9.27;1.40;;;14.20;92.60;;;;;;4992288;28;20050;-71
2022/11/02 03:11:03;;;;;;;13.27;2.78;;;14.20;92.80;;;;;;4992225;28;20277;-71
2022/11/02 03:13:47;;;;;;;11.00;1.70;;;14.20;92.90;;;;;;4984641;28;20046;-71
2022/11/02 03:16:36;;;;;;;13.32;2.05;;;14.20;92.90;;;;;;4992263;28;20401;-70
2022/11/02 03:19:20;;;;;;;8.25;1.60;;;14.20;92.90;;;;;;4992041;28;20289;-71
2022/11/02 03:21:54;;;;;;;12.35;2.00;;;14.20;92.90;;;;;;4992070;28;20125;-71
2022/11/02 03:24:41;;;;;;;15.07;2.05;;;14.20;93.00;;;;;;4990861;28;20030;-71
2022/11/02 03:27:35;;;;;;;11.07;1.77;;;14.30;93.00;;;;;;4991260;28;20027;-71
2022/11/02 03:30:17;;;;;;;9.05;1.80;;;14.20;93.00;;;;;;4991881;28;20026;-71
2022/11/02 03:32:58;;;;;;;9.38;1.30;;;14.30;93.00;;;;;;4991442;28;20030;-71
2022/11/02 03:35:38;;;;;;;11.48;1.98;;;14.30;93.10;;;;;;4991844;28;20046;-71
2022/11/02 03:38:16;;;;;;;8.02;1.85;;;14.30;93.10;;;;;;4991790;28;20046;-71
2022/11/02 03:40:45;;;;;;;5.80;1.20;;;14.30;93.10;;;;;;4991624;28;20031;-70
2022/11/02 03:43:13;;;;;;;12.38;2.15;;;14.30;93.20;;;;;;4990727;28;20026;-71
2022/11/02 03:45:49;;;;;;;8.95;1.70;;;14.30;93.60;;;;;;4990782;28;20038;-71
2022/11/02 03:48:17;;;;;;;16.92;1.67;;;14.40;93.30;;;;;;4990578;28;20038;-71
2022/11/02 03:50:47;;;;;;;8.98;1.50;;;14.30;93.50;;;;;;4991934;28;20023;-71
2022/11/02 03:53:41;;;;;;;11.00;1.92;;;14.40;93.60;;;;;;4991693;28;20113;-72
2022/11/02 03:56:13;;;;;;;12.13;1.42;;;14.30;93.80;;;;;;4991502;28;20038;-70
2022/11/02 03:58:38;;;;;;;5.13;1.63;;;14.30;93.80;;;;;;4991520;28;20034;-71
2022/11/02 04:01:07;;;;;;;18.38;2.28;;;14.40;93.90;;;;;;4991718;28;20470;-71
2022/11/02 04:03:33;;;;;;;7.15;1.90;;;14.40;94.10;;;;;;4991429;28;20030;-73
2022/11/02 04:05:59;;;;;;;10.80;1.73;;;14.40;94.10;;;;;;4991289;28;20030;-73
2022/11/02 04:08:42;;;;;;;9.40;2.92;;;14.30;94.20;;;;;;4991591;28;20527;-72
2022/11/02 04:16:37;;;;;;;9.38;1.48;;;14.30;94.20;;;;;;4991383;28;20052;-73
2022/11/02 04:27:15;;;;;;;8.25;1.40;;;14.40;94.10;;;;;;4991130;28;20430;-72
2022/11/02 04:29:41;;;;;;;7.13;1.52;;;14.40;94.00;;;;;;4991548;28;20023;-71
2022/11/02 04:32:07;;;;;;;7.65;1.98;;;14.40;94.00;;;;;;4991182;28;20084;-71
2022/11/02 04:34:32;;;;;;;7.25;1.38;;;14.40;94.00;;;;;;4989832;28;20031;-72
2022/11/02 04:36:58;;;;;;;8.88;1.23;;;14.40;94.00;;;;;;4990918;28;20448;-72
2022/11/02 04:39:24;;;;;;;9.85;1.35;;;14.30;94.00;;;;;;4989891;28;20030;-71
2022/11/02 04:41:49;;;;;;;8.57;1.90;;;14.20;94.00;;;;;;4991421;28;20316;-73
2022/11/02 04:44:15;;;;;;;9.32;1.83;;;14.20;94.00;;;;;;4996855;28;20027;-72
2022/11/02 04:46:43;;;;;;;15.88;2.58;;;14.20;94.00;;;;;;4997383;28;20122;-72
2022/11/02 04:49:09;;;;;;;11.60;1.47;;;14.20;94.00;;;;;;4997488;28;20049;-72
2022/11/02 04:51:36;;;;;;;9.20;1.48;;;14.20;94.00;;;;;;4997522;28;20060;-72
2022/11/02 04:54:02;;;;;;;10.57;1.50;;;14.10;94.10;;;;;;4997261;28;20030;-72
2022/11/02 04:56:29;;;;;;;9.27;2.25;;;14.10;94.10;;;;;;4997536;28;20037;-73
2022/11/02 04:58:57;;;;;;;13.10;1.35;;;14.10;94.00;;;;;;4997057;28;20026;-72
2022/11/02 05:01:26;;;;;;;8.93;2.53;;;14.10;94.20;;;;;;4995977;28;20096;-72
2022/11/02 05:03:52;;;;;;;;;;;14.10;94.20;;;;;;4997689;28;20056;-73
2022/11/02 05:06:19;;;;;;;12.82;1.65;;;14.10;94.20;;;;;;4997158;28;20287;-72
2022/11/02 05:08:45;;;;;;;11.75;1.95;;;14.00;94.20;;;;;;4997412;28;20034;-72
2022/11/02 05:11:12;;;;;;;8.02;1.10;;;14.10;94.20;;;;;;4995851;28;20082;-72
2022/11/02 05:13:39;;;;;;;13.90;1.95;;;14.00;94.20;;;;;;4996824;28;20030;-74
2022/11/02 05:16:05;;;;;;;9.43;1.60;;;14.00;94.20;;;;;;4997241;28;20061;-72
2022/11/02 05:18:31;;;;;;;15.50;1.70;;;14.00;94.20;;;;;;4997108;28;20034;-72
2022/11/02 05:20:59;;;;;;;12.13;1.85;;;14.10;94.20;;;;;;4997074;28;20026;-72
2022/11/02 05:23:26;;;;;;;9.55;1.50;;;14.00;94.20;;;;;;4996268;28;20026;-72
2022/11/02 05:25:56;;;;;;;15.38;2.17;;;14.00;94.20;;;;;;4997189;28;20031;-72
2022/11/02 05:28:23;;;;;;;7.30;1.55;;;14.00;94.30;;;;;;4996795;28;20050;-72
2022/11/02 05:30:49;;;;;;;14.38;1.83;;;13.90;94.40;;;;;;4997054;28;20103;-71
2022/11/02 05:33:15;;;;;;;9.20;1.48;;;13.90;94.40;;;;;;4997071;28;20037;-72
2022/11/02 05:35:41;;;;;;;6.95;1.63;;;13.90;94.50;;;;;;4997548;28;20034;-72
2022/11/02 05:38:06;;;;;;;15.10;1.92;;;13.90;94.50;;;;;;4997167;28;20035;-71
2022/11/02 05:40:32;;;;;;;9.60;1.77;;;13.80;94.60;;;;;;4996726;28;20208;-73
2022/11/02 05:43:01;;;;;;;10.07;1.70;;;13.90;94.50;;;;;;4996925;28;20034;-72
2022/11/02 05:45:27;;;;;;;7.88;1.40;;;13.90;94.70;;;;;;4996749;28;20102;-71
2022/11/02 05:47:53;;;;;;;6.40;1.73;;;13.90;94.60;;;;;;4997149;28;20360;-71
2022/11/02 05:50:19;;;;;;;7.95;1.35;;;13.90;94.60;;;;;;4996759;28;20447;-72
2022/11/02 05:52:45;;;;;;;6.78;1.98;;;13.90;94.50;;;;;;4996672;28;20156;-71
2022/11/02 05:55:11;;;;;;;13.98;2.15;;;13.80;94.80;;;;;;4994273;28;20518;-72
2022/11/02 05:57:37;;;;;;;8.43;1.58;;;13.90;94.70;;;;;;4992712;28;20022;-71
2022/11/02 06:00:04;;;;;;;12.35;1.75;;;13.90;94.70;;;;;;4993442;28;20053;-72
2022/11/02 06:02:30;;;;;;;7.93;1.30;;;13.90;94.70;;;;;;4993981;28;20015;-73
2022/11/02 06:04:55;;;;;;;5.15;1.35;;;13.90;94.80;;;;;;4993492;28;20409;-72
2022/11/02 06:07:21;;;;;;;13.02;1.98;;;13.90;94.70;;;;;;4993562;28;20026;-71
2022/11/02 06:09:47;;;;;;;8.13;1.80;;;13.90;94.70;;;;;;4993359;28;20369;-71
2022/11/02 06:12:12;;;;;;;8.98;1.65;;;13.90;94.80;;;;;;4992965;28;20046;-72
2022/11/02 06:14:38;;;;;;;8.57;1.60;;;13.80;94.90;;;;;;4993781;28;20121;-72
2022/11/02 06:17:03;;;;;;;9.95;2.00;;;13.90;94.80;;;;;;4992814;28;20034;-71
2022/11/02 06:19:29;;;;;;;11.52;2.00;;;13.80;95.00;;;;;;4993425;28;20030;-70
2022/11/02 06:21:55;;;;;;;11.85;2.13;;;13.80;95.00;;;;;;4978750;28;20042;-72
2022/11/02 06:24:21;;;;;;;8.40;1.92;;;13.80;94.90;;;;;;4973888;28;20042;-71
2022/11/02 06:26:47;;;;;;;11.70;3.60;;;13.80;95.00;;;;;;4974308;28;20125;-73
2022/11/02 06:29:13;;;;;;;5.65;1.90;;;13.80;94.90;;;;;;4973968;28;20038;-72
2022/11/02 06:31:39;;;;;;;4.88;1.80;;;13.80;94.90;;;;;;4974016;28;20301;-72
2022/11/02 06:34:05;;;;;;;16.58;3.25;;;13.80;95.60;;;;;;4973670;28;20126;-72
2022/11/02 06:36:31;;;;;;;15.48;2.28;;;13.90;95.20;;;;;;4973302;28;20038;-72
2022/11/02 06:38:56;;;;;;;8.27;2.13;;;13.80;95.10;;;;;;4974167;28;20019;-73
2022/11/02 06:41:22;;;;;;;14.73;1.92;;;13.90;95.00;;;;;;4974093;28;20026;-73
2022/11/02 06:43:48;;;;;;;8.43;2.65;;;13.80;95.00;;;;;;4973820;28;20098;-73
2022/11/02 06:46:13;;;;;;;10.25;1.98;;;13.90;95.10;;;;;;4973398;28;20045;-72
2022/11/02 06:48:39;;;;;;;11.18;1.98;;;13.90;95.00;;;;;;4973685;28;20050;-74
2022/11/02 06:51:05;;;;;;;7.60;1.42;;;13.90;95.10;;;;;;4973293;28;20357;-74
2022/11/02 06:53:31;;;;;;;14.50;1.90;;;13.90;94.90;;;;;;4973772;28;20030;-73
2022/11/02 06:55:58;;;;;;;12.40;1.77;;;13.90;95.00;;;;;;4988426;28;20046;-72
2022/11/02 06:58:25;;;;;;;11.18;2.03;;;13.90;95.10;;;;;;4973185;28;20089;-73
2022/11/02 07:01:00;;;;;;;9.30;1.98;;;13.90;94.90;;;;;;4972054;28;20038;-73
2022/11/02 07:03:26;;;;;;;9.98;1.50;;;13.90;95.00;;;;;;4973066;28;20027;-73
2022/11/02 07:05:52;;;;;;;8.38;1.80;;;13.90;95.10;;;;;;4972684;28;20088;-73
2022/11/02 07:08:19;;;;;;;13.18;2.05;;;14.00;95.10;;;;;;4972703;28;20509;-73
2022/11/02 07:10:45;;;;;;;8.82;1.48;;;14.00;95.00;;;;;;4972334;28;20497;-72
2022/11/02 07:13:11;;;;;;;14.15;1.90;;;14.00;95.00;;;;;;4972649;28;20038;-73
2022/11/02 07:15:36;;;;;;;6.82;1.73;;;14.00;95.00;;;;;;4972845;28;20070;-72
2022/11/02 07:18:02;;;;;;;12.77;2.05;;;14.00;95.10;;;;;;4972496;28;20053;-72
2022/11/02 07:20:29;;;;;;;10.90;1.83;;;14.00;95.00;;;;;;4973335;28;20465;-71
2022/11/02 07:22:57;;;;;;;10.90;1.67;;;14.00;95.00;;;;;;4972542;28;20039;-73
2022/11/02 07:25:23;;;;;;;16.52;2.22;;;14.10;95.00;;;;;;4972172;28;20496;-73
2022/11/02 07:27:49;;;;;;;13.43;1.92;;;14.10;94.90;;;;;;4972568;28;20050;-73
2022/11/02 07:30:15;;;;;;;13.35;2.30;;;14.20;95.00;;;;;;4972734;28;20385;-72
2022/11/02 07:32:42;;;;;;;18.58;5.72;;;14.20;95.00;;;;;;4971841;28;20031;-74
2022/11/02 07:35:10;;;;;;;10.02;3.83;;;14.20;94.90;;;;;;4987924;28;20035;-72
2022/11/02 07:37:36;;;;;;;14.00;2.40;;;14.30;95.00;;;;;;4972274;28;20046;-72
2022/11/02 07:40:02;;;;;;;15.73;2.10;;;14.30;95.00;;;;;;4972859;28;20038;-72
2022/11/02 07:42:28;;;;;;;7.05;1.88;;;14.30;94.90;;;;;;4971512;28;20416;-72
2022/11/02 07:44:54;;;;;;;7.03;1.80;;;14.40;95.00;;;;;;4972613;28;20147;-72
2022/11/02 07:47:19;;;;;;;9.88;1.80;;;14.40;94.90;;;;;;4972417;28;20039;-72
2022/11/02 07:49:45;;;;;;;11.27;2.00;;;14.40;94.80;;;;;;4972223;28;20034;-72
2022/11/02 07:52:11;;;;;;;15.48;1.95;;;14.40;94.90;;;;;;4971159;28;20042;-73
2022/11/02 07:54:36;;;;;;;12.35;2.22;;;14.50;94.80;;;;;;4972370;28;20507;-71
2022/11/02 07:57:02;;;;;;;13.63;2.70;;;14.50;94.80;;;;;;4972352;28;20065;-72
2022/11/02 07:59:28;;;;;;;13.45;1.90;;;14.50;94.70;;;;;;4972416;28;20423;-71
2022/11/02 08:01:54;;;;;;;5.65;1.80;;;14.60;94.60;;;;;;4971888;28;20031;-72
2022/11/02 08:04:19;;;;;;;8.30;1.65;;;14.60;94.60;;;;;;4972351;28;20037;-71
2022/11/02 08:06:45;;;;;;;15.73;3.17;;;14.70;94.50;;;;;;4972061;28;20096;-71
2022/11/02 08:09:11;;;;;;;11.43;1.90;;;14.70;94.30;;;;;;4971870;28;20062;-72
2022/11/02 08:11:37;;;;;;;9.38;2.50;;;14.70;94.20;;;;;;4972151;28;20121;-72
2022/11/02 08:14:02;;;;;;;15.75;2.05;;;14.80;94.20;;;;;;4971743;28;20064;-71
2022/11/02 08:16:28;;;;;;;9.68;1.73;;;14.80;94.00;;;;;;4970687;28;20153;-76
2022/11/02 08:18:54;;;;;;;14.57;2.10;;;14.90;94.00;;;;;;4969919;28;20500;-71
2022/11/02 08:21:20;;;;;;;9.20;1.92;;;14.90;93.60;;;;;;4971937;28;20118;-71
2022/11/02 08:23:45;;;;;;;7.82;2.15;;;14.90;93.80;;;;;;4972589;28;20023;-71
2022/11/02 08:26:11;;;;;;;10.77;1.85;;;15.00;93.70;;;;;;4971542;28;20453;-71
2022/11/02 08:28:39;;;;;;;15.95;2.20;;;14.90;93.50;;;;;;4971423;28;20027;-72
2022/11/02 08:31:06;;;;;;;14.55;2.35;;;14.90;93.50;;;;;;4971485;28;20046;-73
2022/11/02 08:33:32;;;;;;;8.80;1.80;;;15.00;93.60;;;;;;4971417;28;20329;-72
2022/11/02 08:36:03;;;;;;;14.02;1.98;;;14.90;93.40;;;;;;4971580;28;20041;-71
2022/11/02 08:38:29;;;;;;;10.70;1.70;;;14.90;93.20;;;;;;4987179;28;20093;-72
2022/11/02 08:40:55;;;;;;;9.38;2.00;;;15.00;93.40;;;;;;4971604;28;20027;-70
2022/11/02 08:43:21;;;;;;;9.68;1.98;;;15.10;93.30;;;;;;4971046;28;20037;-71
2022/11/02 08:45:46;;;;;;;9.80;1.92;;;15.00;93.20;;;;;;4971145;28;20035;-70
2022/11/02 08:48:12;;;;;;;9.32;1.70;;;15.00;93.20;;;;;;4971168;28;20465;-71
2022/11/02 08:50:38;;;;;;;11.13;1.88;;;15.00;93.20;;;;;;4972023;28;20481;-70
2022/11/02 08:53:04;;;;;;;8.10;1.80;;;15.00;93.10;;;;;;4971235;28;20489;-71
2022/11/02 08:55:31;;;;;;;5.57;1.83;;;15.00;93.00;;;;;;4986161;28;20035;-71
2022/11/02 08:57:57;;;;;;;9.63;1.92;;;15.00;92.70;;;;;;4969847;28;20034;-71
2022/11/02 09:00:26;;;;;;;8.90;1.35;;;15.00;92.60;;;;;;4970988;28;20052;-70
2022/11/02 09:03:12;;;;;;;9.07;1.83;;;15.20;92.80;;;;;;4971532;28;20077;-70
2022/11/02 09:05:40;;;;;;;8.63;1.48;;;15.30;92.60;;;;;;4971720;28;20050;-70
2022/11/02 09:08:07;;;;;;;;;;;15.20;92.60;;;;;;4971522;28;20368;-72
2022/11/02 09:10:35;;;;;;;9.25;1.92;;;15.20;92.50;;;;;;4970892;28;19981;-70
2022/11/02 09:13:02;;;;;;;10.70;2.00;;;15.20;92.50;;;;;;4971251;28;20062;-71
2022/11/02 09:15:28;;;;;;;12.13;1.98;;;15.20;92.60;;;;;;4970988;28;20134;-72
2022/11/02 09:17:54;;;;;;;16.75;2.50;;;15.20;92.70;;;;;;4971348;28;20078;-72
2022/11/02 09:20:21;;;;;;;8.40;2.00;;;15.20;92.60;;;;;;4969905;28;20383;-70
2022/11/02 09:22:47;;;;;;;5.05;1.67;;;15.10;92.70;;;;;;4971019;28;20039;-72
2022/11/02 09:25:14;;;;;;;7.63;1.67;;;15.10;92.80;;;;;;4969870;28;20035;-73
2022/11/02 09:27:40;;;;;;;7.20;1.63;;;15.20;92.80;;;;;;4970792;28;20449;-72
2022/11/02 09:30:07;;;;;;;8.00;1.50;;;15.30;92.60;;;;;;4973624;28;20480;-70
2022/11/02 09:32:33;;;;;;;8.57;1.58;;;15.20;92.40;;;;;;4990037;28;20343;-71
2022/11/02 09:35:00;;;;;;;17.20;1.73;;;15.40;92.30;;;;;;4989649;28;20039;-72
2022/11/02 09:37:27;;;;;;;7.95;1.65;;;15.40;92.20;;;;;;4973440;28;20134;-71
2022/11/02 09:39:53;;;;;;;10.50;1.90;;;15.50;92.10;;;;;;4974675;28;20118;-71
2022/11/02 09:42:32;;;;;;;8.30;2.10;;;15.50;92.00;;;;;;4989622;28;20034;-72
2022/11/02 09:45:01;;;;;;;11.60;1.80;;;15.50;92.10;;;;;;4974686;28;20436;-71
2022/11/02 09:47:30;;;;;;;7.15;1.38;;;15.50;91.80;;;;;;4974684;28;20448;-71
2022/11/02 09:49:59;;;;;;;6.13;1.70;;;15.80;91.50;;;;;;4973420;28;20027;-72
2022/11/02 09:52:38;;;;;;;7.57;1.50;;;15.90;91.20;;;;;;4974161;28;20042;-72
2022/11/02 09:55:12;;;;;;;8.95;2.15;;;16.00;91.40;;;;;;4974077;28;20049;-72
2022/11/02 09:57:41;;;;;;;10.55;2.03;;;16.30;91.50;;;;;;4974382;28;20365;-73
2022/11/02 10:00:13;;;;;;;10.05;1.58;;;16.50;90.70;;;;;;4973849;28;20027;-73
2022/11/02 10:02:41;;;;;;;12.45;1.60;;;16.60;90.10;;;;;;4974523;28;20023;-71
2022/11/02 10:05:19;;;;;;;9.27;1.48;;;16.50;89.90;;;;;;4972948;28;20023;-71
2022/11/02 10:08:09;;;;;;;4.75;1.10;;;17.10;88.50;;;;;;4973979;28;20065;-71
2022/11/02 10:10:51;;;;;;;7.38;1.23;;;16.90;87.50;;;;;;4973659;28;20061;-72
2022/11/02 10:13:36;;;;;;;7.35;1.65;;;17.30;87.80;;;;;;4973805;28;20038;-72
2022/11/02 10:16:16;;;;;;;11.07;1.85;;;17.40;87.10;;;;;;4973726;28;20109;-71
2022/11/02 10:18:48;;;;;;;9.20;1.33;;;17.50;84.50;;;;;;4973867;28;20374;-72
2022/11/02 10:21:20;;;;;;;8.15;1.70;;;17.30;84.60;;;;;;4973447;28;20073;-73
2022/11/02 10:23:53;;;;;;;8.15;1.60;;;17.00;85.20;;;;;;4974099;28;20023;-73
2022/11/02 10:26:23;;;;;;;11.65;1.30;;;16.80;85.70;;;;;;4973668;28;20035;-73
2022/11/02 10:29:00;;;;;;;5.45;1.25;;;17.00;85.70;;;;;;4973577;28;20037;-76
2022/11/02 10:31:33;;;;;;;5.07;1.30;;;17.30;85.40;;;;;;4973579;28;20046;-73
2022/11/02 10:34:15;;;;;;;7.63;0.90;;;17.50;85.40;;;;;;4973547;28;20035;-72
2022/11/02 10:37:15;;;;;;;4.50;1.00;;;17.40;82.60;;;;;;4973593;28;20039;-74
2022/11/02 10:40:04;;;;;;;13.50;1.52;;;17.50;82.70;;;;;;4973250;28;20507;-73
2022/11/02 10:42:47;;;;;;;11.93;1.40;;;17.90;82.40;;;;;;4973120;28;20415;-74
2022/11/02 10:45:46;;;;;;;6.78;1.40;;;18.00;81.30;;;;;;4988220;28;20042;-74
2022/11/02 10:48:30;;;;;;;7.95;1.20;;;18.50;81.50;;;;;;4972105;28;20152;-73
2022/11/02 10:51:20;;;;;;;7.20;1.33;;;18.90;80.50;;;;;;4973111;28;20046;-75
2022/11/02 10:53:51;;;;;;;9.00;1.60;;;18.10;78.40;;;;;;4973848;28;20049;-72
2022/11/02 10:56:23;;;;;;;9.02;1.63;;;18.00;78.90;;;;;;4988514;28;20086;-73
2022/11/02 10:59:14;;;;;;;6.05;1.25;;;18.40;78.60;;;;;;4973278;28;20429;-74
2022/11/02 11:01:55;;;;;;;5.72;1.35;;;18.80;77.50;;;;;;4972986;28;20038;-73
2022/11/02 11:04:27;;;;;;;5.65;1.60;;;18.50;76.00;;;;;;4973101;28;20031;-73
2022/11/02 11:06:55;;;;;;;7.93;1.30;;;18.10;76.60;;;;;;4973000;28;20118;-72
2022/11/02 11:09:29;;;;;;;6.00;1.50;;;18.20;78.30;;;;;;4972662;28;20166;-74
2022/11/02 11:12:05;;;;;;;12.02;1.48;;;18.80;77.50;;;;;;4973224;28;20035;-73
2022/11/02 11:14:58;;;;;;;3.20;0.90;;;18.40;76.80;;;;;;4972777;28;20089;-73
2022/11/02 11:17:32;;;;;;;3.17;1.02;;;18.90;76.50;;;;;;4983823;28;20043;-73
2022/11/02 11:19:59;;;;;;;13.02;1.80;;;19.20;75.10;;;;;;4972807;28;20376;-74
2022/11/02 11:22:28;;;;;;;9.57;1.13;;;18.80;75.40;;;;;;4987772;28;20104;-73
2022/11/02 11:25:18;;;;;;;11.48;2.08;;;18.50;74.70;;;;;;4972609;28;20346;-73
2022/11/02 11:27:56;;;;;;;9.10;1.50;;;18.50;75.60;;;;;;4961197;28;20114;-74
2022/11/02 11:30:29;;;;;;;5.68;1.38;;;19.20;73.40;;;;;;4987497;28;20057;-73
2022/11/02 11:32:57;;;;;;;6.20;1.30;;;18.90;73.90;;;;;;4987544;28;20364;-72
2022/11/02 11:35:31;;;;;;;6.95;1.58;;;18.70;74.20;;;;;;4972923;28;20023;-73
2022/11/02 11:38:01;;;;;;;9.52;1.83;;;18.80;73.70;;;;;;4972350;28;20031;-73
2022/11/02 11:40:32;;;;;;;7.85;1.30;;;18.80;74.60;;;;;;4972320;28;20109;-72
2022/11/02 11:42:58;;;;;;;8.52;1.67;;;18.40;74.40;;;;;;4972220;28;20035;-74
2022/11/02 11:45:26;;;;;;;6.32;1.73;;;18.70;75.60;;;;;;4972269;28;20061;-79
2022/11/02 11:47:59;;;;;;;7.60;2.20;;;18.70;77.90;;;;;;4971555;28;20089;-73
2022/11/02 11:50:25;;;;;;;7.05;1.33;;;18.70;75.00;;;;;;4972143;28;20480;-73
2022/11/02 11:53:26;;;;;;;4.45;1.02;;;18.50;74.60;;;;;;4970878;28;20035;-71
2022/11/02 11:55:57;;;;;;;8.52;1.13;;;18.30;75.30;;;;;;4893418;29;20490;-71
2022/11/02 11:58:30;;;;;;;10.98;1.27;;;18.40;75.00;;;;;;4958657;28;20107;-72
2022/11/02 12:01:05;;;;;;;6.60;2.00;;;17.80;74.20;;;;;;4972090;28;20053;-71
2022/11/02 12:03:30;;;;;;;7.53;1.42;;;17.70;75.40;;;;;;4970894;28;20038;-70
2022/11/02 12:06:41;;;;;;;5.88;1.23;;;17.70;74.90;;;;;;4971921;28;20030;-70
2022/11/02 12:09:44;;;;;;;16.80;1.33;;;17.40;75.80;;;;;;4911033;28;20073;-71
2022/11/02 12:12:30;;;;;;;7.05;1.10;;;17.70;76.50;;;;;;4971818;28;20043;-69
2022/11/02 12:15:22;;;;;;;7.70;1.80;;;17.40;76.50;;;;;;4971768;28;20044;-71
2022/11/02 12:18:06;;;;;;;8.85;1.65;;;17.30;77.70;;;;;;4972220;28;20449;-71
2022/11/02 12:20:41;;;;;;;8.65;1.30;;;17.20;77.30;;;;;;4970885;28;20193;-72
2022/11/02 12:23:27;;;;;;;9.40;1.52;;;17.00;76.60;;;;;;4970693;28;20449;-72
2022/11/02 12:26:28;;;;;;;7.43;1.30;;;16.90;76.60;;;;;;4971615;28;20039;-71
2022/11/02 12:29:16;;;;;;;11.02;1.77;;;16.80;75.80;;;;;;4987151;28;20443;-72
2022/11/02 12:32:09;;;;;;;11.23;1.65;;;16.80;76.40;;;;;;4986783;28;20489;-71
2022/11/02 12:35:08;;;;;;;6.80;1.35;;;17.10;76.30;;;;;;4971471;28;20045;-71
2022/11/02 12:38:11;;;;;;;14.13;1.90;;;17.00;76.10;;;;;;4970441;28;20035;-71
2022/11/02 12:41:16;;;;;;;7.65;1.67;;;16.80;76.10;;;;;;4971621;28;20102;-73
2022/11/02 12:43:48;;;;;;;11.82;1.48;;;16.90;76.00;;;;;;4971510;28;20038;-70
2022/11/02 12:46:33;;;;;;;8.57;1.30;;;16.50;76.50;;;;;;4971405;28;20031;-71
2022/11/02 12:49:08;;;;;;;8.43;1.50;;;16.50;77.40;;;;;;4970426;28;20475;-72
2022/11/02 12:51:46;;;;;;;8.23;1.67;;;16.60;77.70;;;;;;4971450;28;20031;-70
2022/11/02 12:54:25;;;;;;;12.52;2.38;;;16.70;77.30;;;;;;4971360;28;20027;-73
2022/11/02 12:56:53;;;;;;;3.92;1.02;;;16.60;78.40;;;;;;4971688;28;20026;-70
2022/11/02 12:59:31;;;;;;;5.75;1.38;;;16.70;77.60;;;;;;4986525;28;20428;-72
2022/11/02 13:02:08;;;;;;;7.28;1.27;;;16.80;77.00;;;;;;4971327;28;20078;-72
2022/11/02 13:04:48;;;;;;;21.65;1.85;;;16.60;76.10;;;;;;4973658;28;20038;-72
2022/11/02 13:07:29;;;;;;;9.63;1.80;;;16.70;76.60;;;;;;4975355;28;20035;-72
2022/11/02 13:10:03;;;;;;;7.72;1.75;;;16.80;76.70;;;;;;4974161;28;20560;-72
2022/11/02 13:12:32;;;;;;;7.22;1.75;;;16.90;77.10;;;;;;4975205;28;20030;-73
2022/11/02 13:15:00;;;;;;;10.65;1.73;;;17.10;76.30;;;;;;4973877;28;20031;-72
2022/11/02 13:17:45;;;;;;;3.53;0.73;;;17.00;76.00;;;;;;4976023;28;20061;-72
2022/11/02 13:20:23;;;;;;;7.88;1.50;;;16.90;76.40;;;;;;4975178;28;20035;-72